createdAt,value
2019-04-06T00:02:27.381Z,36.27
2019-04-06T00:04:57.010Z,35.70
2019-04-06T00:07:26.630Z,31.07
2019-04-06T00:09:56.200Z,31.67
2019-04-06T00:12:25.856Z,33.07
2019-04-06T00:14:55.433Z,35.20
2019-04-06T00:17:25.297Z,35.13
2019-04-06T00:19:54.877Z,34.43
2019-04-06T00:22:24.535Z,32.87
2019-04-06T00:24:54.179Z,33.70
2019-04-06T00:27:24.692Z,34.83
2019-04-06T00:29:54.400Z,35.97
2019-04-06T00:32:25.617Z,34.57
2019-04-06T00:34:55.301Z,34.73
2019-04-06T00:37:24.861Z,34.77
2019-04-06T00:39:54.498Z,34.83
2019-04-06T00:42:24.197Z,35.17
2019-04-06T00:44:54.028Z,35.13
2019-04-06T00:47:23.645Z,36.40
2019-04-06T00:49:53.317Z,33.43
2019-04-06T00:52:22.895Z,34.93
2019-04-06T00:54:52.509Z,34.87
2019-04-06T00:57:22.081Z,33.10
2019-04-06T00:59:51.749Z,33.27
2019-04-06T01:02:21.523Z,33.40
2019-04-06T01:04:51.177Z,33.70
2019-04-06T01:07:23.066Z,34.20
2019-04-06T01:09:52.200Z,34.53
2019-04-06T01:12:21.822Z,34.77
2019-04-06T01:14:51.495Z,35.63
2019-04-06T01:17:21.384Z,32.57
2019-04-06T01:19:52.611Z,33.50
2019-04-06T01:22:22.223Z,36.00
2019-04-06T01:24:51.796Z,34.20
2019-04-06T01:27:21.497Z,34.10
2019-04-06T01:29:52.961Z,35.00
2019-04-06T01:32:22.606Z,37.20
2019-04-06T01:34:52.351Z,32.37
2019-04-06T01:37:21.916Z,34.87
2019-04-06T01:39:51.518Z,34.93
2019-04-06T01:42:21.284Z,33.43
2019-04-06T01:44:50.921Z,34.50
2019-04-06T01:47:20.770Z,32.60
2019-04-06T01:49:50.336Z,34.07
2019-04-06T01:52:20.208Z,34.90
2019-04-06T01:54:49.795Z,33.73
2019-04-06T01:57:19.385Z,33.43
2019-04-06T01:59:48.947Z,32.60
2019-04-06T02:02:20.201Z,36.47
2019-04-06T02:04:49.790Z,37.53
2019-04-06T02:07:19.399Z,35.17
2019-04-06T02:09:49.108Z,34.27
2019-04-06T02:12:18.680Z,35.13
2019-04-06T02:14:48.244Z,35.53
2019-04-06T02:17:17.884Z,35.13
2019-04-06T02:19:47.570Z,34.47
2019-04-06T02:22:19.675Z,35.87
2019-04-06T02:24:49.229Z,37.13
2019-04-06T02:27:18.783Z,34.80
2019-04-06T02:29:52.048Z,37.97
2019-04-06T02:32:25.489Z,36.17
2019-04-06T02:34:56.701Z,37.30
2019-04-06T02:37:31.481Z,37.10
2019-04-06T02:40:02.741Z,37.50
2019-04-06T02:42:50.440Z,35.37
2019-04-06T02:45:20.273Z,39.30
2019-04-06T02:47:49.916Z,38.30
2019-04-06T02:50:19.519Z,36.70
2019-04-06T02:52:49.109Z,40.47
2019-04-06T02:55:18.682Z,37.90
2019-04-06T02:57:48.432Z,36.20
2019-04-06T03:00:18.321Z,38.37
2019-04-06T03:02:47.884Z,38.70
2019-04-06T03:05:17.475Z,37.90
2019-04-06T03:07:47.041Z,35.43
2019-04-06T03:10:16.809Z,37.13
2019-04-06T03:12:46.388Z,36.63
2019-04-06T03:15:15.949Z,41.03
2019-04-06T03:17:45.596Z,37.27
2019-04-06T03:20:15.237Z,37.17
2019-04-06T03:22:44.788Z,37.57
2019-04-06T03:25:14.711Z,35.47
2019-04-06T03:27:44.271Z,37.73
2019-04-06T03:30:14.094Z,39.07
2019-04-06T03:32:43.676Z,38.73
2019-04-06T03:35:13.362Z,36.83
2019-04-06T03:37:42.932Z,38.30
2019-04-06T03:40:12.629Z,36.93
2019-04-06T03:42:42.191Z,36.87
2019-04-06T03:45:12.000Z,35.30
2019-04-06T03:47:41.660Z,37.13
2019-04-06T03:50:11.461Z,36.57
2019-04-06T03:52:41.021Z,36.97
2019-04-06T03:55:10.796Z,35.37
2019-04-06T03:57:40.364Z,37.27
2019-04-06T04:00:10.548Z,37.63
2019-04-06T04:02:40.055Z,37.00
2019-04-06T04:05:09.744Z,36.73
2019-04-06T04:07:39.351Z,35.20
2019-04-06T04:10:09.415Z,36.07
2019-04-06T04:12:39.031Z,34.63
2019-04-06T04:15:08.904Z,37.73
2019-04-06T04:17:38.476Z,35.73
2019-04-06T04:20:08.730Z,33.47
2019-04-06T04:22:38.460Z,34.77
2019-04-06T04:25:08.142Z,34.97
2019-04-06T04:27:39.663Z,36.07
2019-04-06T04:30:09.892Z,34.43
2019-04-06T04:32:39.614Z,36.33
2019-04-06T04:35:09.210Z,35.20
2019-04-06T04:37:38.804Z,33.67
2019-04-06T04:40:08.589Z,35.60
2019-04-06T04:42:38.115Z,35.70
2019-04-06T04:45:07.978Z,34.73
2019-04-06T04:47:37.493Z,36.83
2019-04-06T04:50:08.294Z,35.93
2019-04-06T04:52:37.887Z,35.63
2019-04-06T04:55:08.269Z,35.67
2019-04-06T04:57:40.858Z,35.40
2019-04-06T05:00:09.206Z,35.07
2019-04-06T05:02:38.772Z,34.37
2019-04-06T05:05:09.621Z,34.30
2019-04-06T05:07:39.646Z,36.10
2019-04-06T05:10:10.098Z,37.40
2019-04-06T05:12:39.998Z,35.17
2019-04-06T05:15:22.815Z,36.03
2019-04-06T05:17:52.702Z,34.37
2019-04-06T05:20:23.946Z,33.47
2019-04-06T05:22:53.621Z,36.53
2019-04-06T05:25:23.235Z,35.53
2019-04-06T05:27:53.165Z,35.73
2019-04-06T05:30:23.020Z,34.43
2019-04-06T05:32:52.658Z,35.53
2019-04-06T05:35:22.187Z,35.87
2019-04-06T05:37:51.800Z,34.80
2019-04-06T05:40:21.333Z,36.63
2019-04-06T05:42:50.889Z,35.03
2019-04-06T05:45:20.463Z,34.60
2019-04-06T05:47:49.979Z,35.87
2019-04-06T05:50:19.725Z,35.87
2019-04-06T05:52:49.320Z,34.73
2019-04-06T05:55:19.460Z,34.33
2019-04-06T05:57:48.996Z,35.00
2019-04-06T06:00:18.595Z,35.33
2019-04-06T06:02:48.145Z,34.30
2019-04-06T06:05:17.712Z,35.43
2019-04-06T06:07:47.285Z,40.33
2019-04-06T06:10:17.031Z,35.73
2019-04-06T06:12:46.630Z,37.73
2019-04-06T06:15:16.347Z,34.00
2019-04-06T06:17:46.451Z,37.20
2019-04-06T06:22:42.912Z,35.37
2019-04-06T06:25:13.073Z,36.80
2019-04-06T06:27:42.703Z,34.40
2019-04-06T06:30:12.703Z,36.73
2019-04-06T06:32:42.534Z,36.80
2019-04-06T06:35:12.152Z,38.70
2019-04-06T06:37:41.981Z,38.20
2019-04-06T06:40:11.744Z,38.17
2019-04-06T06:42:41.443Z,38.43
2019-04-06T06:45:11.518Z,37.43
2019-04-06T06:47:41.068Z,37.37
2019-04-06T06:50:11.266Z,35.47
2019-04-06T06:52:40.817Z,35.43
2019-04-06T06:55:10.531Z,36.70
2019-04-06T06:57:40.066Z,36.87
2019-04-06T07:00:10.128Z,35.90
2019-04-06T07:02:40.151Z,35.90
2019-04-06T07:05:10.011Z,36.33
2019-04-06T07:07:39.548Z,39.57
2019-04-06T07:10:09.695Z,37.20
2019-04-06T07:12:39.370Z,36.63
2019-04-06T07:15:09.245Z,38.23
2019-04-06T07:17:38.804Z,37.27
2019-04-06T07:20:08.978Z,36.43
2019-04-06T07:22:38.721Z,37.67
2019-04-06T07:25:08.840Z,38.13
2019-04-06T07:27:38.394Z,37.13
2019-04-06T07:30:09.142Z,36.87
2019-04-06T07:32:38.785Z,35.70
2019-04-06T07:35:08.521Z,38.23
2019-04-06T07:37:38.076Z,36.63
2019-04-06T07:40:09.790Z,37.57
2019-04-06T07:42:39.385Z,37.80
2019-04-06T07:45:10.159Z,37.40
2019-04-06T07:47:39.696Z,37.20
2019-04-06T07:50:11.233Z,39.33
2019-04-06T07:52:41.038Z,37.90
2019-04-06T07:55:10.905Z,37.10
2019-04-06T07:57:40.803Z,35.80
2019-04-06T08:00:11.218Z,36.67
2019-04-06T08:02:40.744Z,37.47
2019-04-06T08:05:10.358Z,40.23
2019-04-06T08:07:39.920Z,38.10
2019-04-06T08:10:10.347Z,37.03
2019-04-06T08:12:40.104Z,35.17
2019-04-06T08:15:12.159Z,38.50
2019-04-06T08:17:41.746Z,38.57
2019-04-06T08:20:12.008Z,36.03
2019-04-06T08:22:41.661Z,36.70
2019-04-06T08:25:11.517Z,37.53
2019-04-06T08:27:41.168Z,38.07
2019-04-06T08:30:11.594Z,39.43
2019-04-06T08:32:41.147Z,37.60
2019-04-06T08:35:12.331Z,37.73
2019-04-06T08:37:42.118Z,38.27
2019-04-06T08:40:11.937Z,35.93
2019-04-06T08:42:41.532Z,37.87
2019-04-06T08:45:13.677Z,36.17
2019-04-06T08:47:42.976Z,37.47
2019-04-06T08:50:13.601Z,35.67
2019-04-06T08:52:43.296Z,37.37
2019-04-06T08:55:13.626Z,36.83
2019-04-06T08:57:43.795Z,37.77
2019-04-06T09:00:14.164Z,35.00
2019-04-06T09:02:43.722Z,38.60
2019-04-06T09:05:14.043Z,38.67
2019-04-06T09:07:44.065Z,36.83
2019-04-06T09:10:14.257Z,38.43
2019-04-06T09:12:43.922Z,39.47
2019-04-06T09:15:15.526Z,38.57
2019-04-06T09:17:45.467Z,36.63
2019-04-06T09:20:17.064Z,37.93
2019-04-06T09:22:47.080Z,37.83
2019-04-06T09:25:17.158Z,38.20
2019-04-06T09:27:47.540Z,36.37
2019-04-06T09:30:17.997Z,38.50
2019-04-06T09:32:48.236Z,38.73
2019-04-06T09:35:18.467Z,36.43
2019-04-06T09:37:48.081Z,37.03
2019-04-06T09:40:17.721Z,38.57
2019-04-06T09:42:47.280Z,39.07
2019-04-06T09:45:27.348Z,39.80
2019-04-06T09:47:58.519Z,38.20
2019-04-06T09:50:41.509Z,38.93
2019-04-06T09:53:28.881Z,39.03
2019-04-06T09:55:58.278Z,37.40
2019-04-06T09:58:29.519Z,37.67
2019-04-06T10:00:58.852Z,41.77
2019-04-06T10:03:32.740Z,39.10
2019-04-06T10:06:20.319Z,38.27
2019-04-06T10:09:08.149Z,38.83
2019-04-06T10:11:39.335Z,36.33
2019-04-06T10:14:17.315Z,39.33
2019-04-06T10:16:54.382Z,38.77
2019-04-06T10:19:25.562Z,35.03
2019-04-06T10:21:56.767Z,35.03
2019-04-06T10:24:30.742Z,35.47
2019-04-06T10:27:01.882Z,35.47
2019-04-06T10:29:49.594Z,33.73
2019-04-06T10:32:28.689Z,32.40
2019-04-06T10:35:11.616Z,38.07
2019-04-06T10:37:42.847Z,37.67
2019-04-06T10:40:14.187Z,32.80
2019-04-06T10:42:50.410Z,30.87
2019-04-06T10:45:21.780Z,33.80
2019-04-06T10:47:51.308Z,30.33
2019-04-06T10:50:23.636Z,32.03
2019-04-06T10:53:06.632Z,31.37
2019-04-06T10:55:40.567Z,29.50
2019-04-06T10:58:12.107Z,30.40
2019-04-06T11:00:43.465Z,30.97
2019-04-06T11:03:17.244Z,31.20
2019-04-06T11:06:04.709Z,31.03
2019-04-06T11:08:50.815Z,31.43
2019-04-06T11:11:22.090Z,30.17
2019-04-06T11:13:53.272Z,33.13
2019-04-06T11:16:33.794Z,34.33
2019-04-06T11:19:09.004Z,38.87
2019-04-06T11:21:40.382Z,37.50
2019-04-06T11:24:21.497Z,37.20
2019-04-06T11:26:58.803Z,36.83
2019-04-06T11:29:46.122Z,38.77
2019-04-06T11:32:15.711Z,35.97
2019-04-06T11:34:50.919Z,35.90
2019-04-06T11:37:22.966Z,38.30
2019-04-06T11:39:54.717Z,38.33
2019-04-06T11:42:28.707Z,36.03
2019-04-06T11:45:06.475Z,36.00
2019-04-06T11:47:54.604Z,37.67
2019-04-06T11:50:42.021Z,34.87
2019-04-06T11:53:22.047Z,37.93
2019-04-06T11:56:11.451Z,36.70
2019-04-06T11:58:51.653Z,38.17
2019-04-06T12:01:22.830Z,38.37
2019-04-06T12:03:58.999Z,40.50
2019-04-06T12:06:30.340Z,38.50
2019-04-06T12:09:07.365Z,38.33
2019-04-06T12:11:55.238Z,39.87
2019-04-06T12:14:29.582Z,38.53
2019-04-06T12:17:17.538Z,36.27
2019-04-06T12:19:51.406Z,38.20
2019-04-06T12:22:22.606Z,36.27
2019-04-06T12:25:10.320Z,38.10
2019-04-06T12:27:56.586Z,37.03
2019-04-06T12:30:37.686Z,37.30
2019-04-06T12:33:08.834Z,39.40
2019-04-06T12:35:53.273Z,38.30
2019-04-06T12:38:41.173Z,37.90
2019-04-06T12:41:21.708Z,39.73
2019-04-06T12:44:09.804Z,37.73
2019-04-06T12:46:39.567Z,38.10
2019-04-06T12:49:25.674Z,39.40
2019-04-06T12:51:57.224Z,41.60
2019-04-06T12:54:29.483Z,40.07
2019-04-06T12:57:16.774Z,38.47
2019-04-06T12:59:53.731Z,35.20
2019-04-06T13:02:24.933Z,36.77
2019-04-06T13:05:05.148Z,38.13
2019-04-06T13:07:38.065Z,47.27
2019-04-06T13:10:10.397Z,37.83
2019-04-06T13:12:55.148Z,38.60
2019-04-06T13:15:24.812Z,37.13
2019-04-06T13:18:00.442Z,38.10
2019-04-06T13:20:43.819Z,39.87
2019-04-06T13:23:13.249Z,37.30
2019-04-06T13:25:51.919Z,37.20
2019-04-06T13:28:21.279Z,40.13
2019-04-06T13:31:02.664Z,38.27
2019-04-06T13:33:30.656Z,39.53
2019-04-06T13:36:17.684Z,39.20
2019-04-06T13:38:49.023Z,40.13
2019-04-06T13:41:32.052Z,38.47
2019-04-06T13:44:15.291Z,39.33
2019-04-06T13:46:48.963Z,37.03
2019-04-06T13:49:38.585Z,35.80
2019-04-06T13:52:12.970Z,37.00
2019-04-06T13:55:00.841Z,36.33
2019-04-06T13:57:34.692Z,35.83
2019-04-06T14:00:16.819Z,33.97
2019-04-06T14:03:04.183Z,35.67
2019-04-06T14:05:50.706Z,38.60
2019-04-06T14:08:42.659Z,36.50
2019-04-06T14:11:27.593Z,36.60
2019-04-06T14:14:01.619Z,37.47
2019-04-06T14:16:50.925Z,35.80
2019-04-06T14:19:22.748Z,36.87
2019-04-06T14:21:54.222Z,36.20
2019-04-06T14:24:40.157Z,36.83
2019-04-06T14:27:17.639Z,36.97
2019-04-06T14:30:07.307Z,34.80
2019-04-06T14:32:54.682Z,38.47
2019-04-06T14:35:32.333Z,37.07
2019-04-06T14:38:03.686Z,37.77
2019-04-06T14:40:51.341Z,37.27
2019-04-06T14:43:26.759Z,35.73
2019-04-06T14:45:56.141Z,36.10
2019-04-06T14:48:27.771Z,35.13
2019-04-06T14:51:09.497Z,36.93
2019-04-06T14:53:40.682Z,36.27
2019-04-06T14:56:14.784Z,34.50
2019-04-06T14:58:49.946Z,34.60
2019-04-06T15:01:37.021Z,34.27
2019-04-06T15:04:16.621Z,35.63
2019-04-06T15:06:50.643Z,33.60
2019-04-06T15:09:39.943Z,34.60
2019-04-06T15:12:23.303Z,32.33
2019-04-06T15:15:10.546Z,32.43
2019-04-06T15:17:56.853Z,33.10
2019-04-06T15:20:28.229Z,30.80
2019-04-06T15:22:59.408Z,33.67
2019-04-06T15:25:42.740Z,33.37
2019-04-06T15:28:14.328Z,34.87
2019-04-06T15:30:45.537Z,34.03
2019-04-06T15:33:28.843Z,30.60
2019-04-06T15:36:16.321Z,33.70
2019-04-06T15:38:59.265Z,30.43
2019-04-06T15:41:55.329Z,33.50
2019-04-06T15:44:19.455Z,31.77
2019-04-06T15:46:53.346Z,31.43
2019-04-06T15:49:22.970Z,33.53
2019-04-06T15:51:53.023Z,32.37
2019-04-06T15:54:39.877Z,31.37
2019-04-06T15:57:11.289Z,33.20
2019-04-06T15:59:58.582Z,29.73
2019-04-06T16:02:37.142Z,30.57
2019-04-06T16:05:16.701Z,32.43
2019-04-06T16:08:03.775Z,29.83
2019-04-06T16:10:48.148Z,31.97
2019-04-06T16:13:28.165Z,31.77
2019-04-06T16:16:05.191Z,30.30
2019-04-06T16:18:53.635Z,29.53
2019-04-06T16:21:43.071Z,30.33
2019-04-06T16:24:20.317Z,30.83
2019-04-06T16:26:54.009Z,29.57
2019-04-06T16:29:25.222Z,29.27
2019-04-06T16:31:56.454Z,28.10
2019-04-06T16:34:36.865Z,28.30
2019-04-06T16:37:13.669Z,28.80
2019-04-06T16:39:57.436Z,31.27
2019-04-06T16:42:34.657Z,29.77
2019-04-06T16:45:25.935Z,31.80
2019-04-06T16:48:15.371Z,30.30
2019-04-06T16:51:02.984Z,29.90
2019-04-06T16:53:50.492Z,30.37
2019-04-06T16:56:29.977Z,28.37
2019-04-06T16:59:01.248Z,30.33
2019-04-06T17:01:35.276Z,29.87
2019-04-06T17:04:12.498Z,30.63
2019-04-06T17:06:55.714Z,30.73
2019-04-06T17:09:26.925Z,28.13
2019-04-06T17:12:13.017Z,29.23
2019-04-06T17:14:50.263Z,28.73
2019-04-06T17:17:22.045Z,28.87
2019-04-06T17:19:54.335Z,29.97
2019-04-06T17:22:28.565Z,28.37
2019-04-06T17:25:14.632Z,42.50
2019-04-06T17:27:55.533Z,39.17
2019-04-06T17:30:29.121Z,36.00
2019-04-06T17:33:06.288Z,41.20
2019-04-06T17:35:37.662Z,41.57
2019-04-06T17:38:25.230Z,46.27
2019-04-06T17:40:57.272Z,41.50
2019-04-06T17:43:40.601Z,34.03
2019-04-06T17:46:17.530Z,34.97
2019-04-06T17:48:48.747Z,33.97
2019-04-06T17:51:35.151Z,34.67
2019-04-06T17:54:15.124Z,38.07
2019-04-06T17:56:55.043Z,36.67
2019-04-06T17:59:28.884Z,38.87
2019-04-06T18:02:16.033Z,36.90
2019-04-06T18:05:03.671Z,35.87
2019-04-06T18:07:51.182Z,67.63
2019-04-06T18:10:24.842Z,87.83
2019-04-06T18:13:01.918Z,53.17
2019-04-06T18:15:31.826Z,54.17
2019-04-06T18:18:01.403Z,46.20
2019-04-06T18:20:31.054Z,49.63
2019-04-06T18:23:00.916Z,48.57
2019-04-06T18:25:30.520Z,48.77
2019-04-06T18:28:00.570Z,42.97
2019-04-06T18:30:30.500Z,38.67
2019-04-06T18:33:03.157Z,35.20
2019-04-06T18:35:32.972Z,32.93
2019-04-06T18:38:04.708Z,35.27
2019-04-06T18:40:34.444Z,32.13
2019-04-06T18:43:04.192Z,30.00
2019-04-06T18:45:34.022Z,28.00
2019-04-06T18:48:03.528Z,31.30
2019-04-06T18:50:36.805Z,30.47
2019-04-06T18:53:04.721Z,32.87
2019-04-06T18:55:34.253Z,29.20
2019-04-06T18:58:12.233Z,27.73
2019-04-06T19:00:35.710Z,32.93
2019-04-06T19:03:14.070Z,30.33
2019-04-06T19:05:36.876Z,34.00
2019-04-06T19:08:06.904Z,32.27
2019-04-06T19:10:36.580Z,29.60
2019-04-06T19:13:07.070Z,33.03
2019-04-06T19:15:36.907Z,33.67
2019-04-06T19:18:06.536Z,35.53
2019-04-06T19:20:36.149Z,33.10
2019-04-06T19:23:05.795Z,32.90
2019-04-06T19:25:35.483Z,32.80
2019-04-06T19:28:05.455Z,32.00
2019-04-06T19:30:35.169Z,34.93
2019-04-06T19:33:05.651Z,35.50
2019-04-06T19:35:35.213Z,33.43
2019-04-06T19:38:05.064Z,36.43
2019-04-06T19:40:34.593Z,34.67
2019-04-06T19:43:04.478Z,34.10
2019-04-06T19:45:34.146Z,33.20
2019-04-06T19:48:04.211Z,35.83
2019-04-06T19:50:34.031Z,35.43
2019-04-06T19:53:03.901Z,33.13
2019-04-06T19:55:33.559Z,35.70
2019-04-06T19:58:03.125Z,34.43
2019-04-06T20:00:32.862Z,35.10
2019-04-06T20:03:02.415Z,34.57
2019-04-06T20:05:31.989Z,32.33
2019-04-06T20:08:01.535Z,33.27
2019-04-06T20:10:31.192Z,32.17
2019-04-06T20:13:00.860Z,32.67
2019-04-06T20:15:30.909Z,35.93
2019-04-06T20:18:04.435Z,33.90
2019-04-06T20:20:34.215Z,34.30
2019-04-06T20:23:03.891Z,37.70
2019-04-06T20:25:34.513Z,35.93
2019-04-06T20:28:05.545Z,33.70
2019-04-06T20:30:35.090Z,33.43
2019-04-06T20:33:04.635Z,35.23
2019-04-06T20:35:34.179Z,35.03
2019-04-06T20:38:03.949Z,35.87
2019-04-06T20:40:33.557Z,34.13
2019-04-06T20:43:03.117Z,35.37
2019-04-06T20:45:32.648Z,35.17
2019-04-06T20:48:02.895Z,34.30
2019-04-06T20:50:33.119Z,36.03
2019-04-06T20:53:02.813Z,34.73
2019-04-06T20:55:32.353Z,35.27
2019-04-06T20:58:01.906Z,35.43
2019-04-06T21:00:32.316Z,35.23
2019-04-06T21:03:04.371Z,35.00
2019-04-06T21:05:33.641Z,34.67
2019-04-06T21:08:03.197Z,33.27
2019-04-06T21:10:32.830Z,31.17
2019-04-06T21:13:02.405Z,36.97
2019-04-06T21:15:32.078Z,37.13
2019-04-06T21:18:01.782Z,37.90
2019-04-06T21:20:31.485Z,36.03
2019-04-06T21:23:01.592Z,34.37
2019-04-06T21:25:31.117Z,34.47
2019-04-06T21:28:01.088Z,33.07
2019-04-06T21:30:31.314Z,35.27
2019-04-06T21:33:01.237Z,37.87
2019-04-06T21:35:31.721Z,37.23
2019-04-06T21:38:02.053Z,36.13
2019-04-06T21:40:31.737Z,38.27
2019-04-06T21:43:01.611Z,36.30
2019-04-06T21:45:31.570Z,35.83
2019-04-06T21:48:01.684Z,36.67
2019-04-06T21:50:31.980Z,37.87
2019-04-06T21:53:01.610Z,38.37
2019-04-06T21:55:31.275Z,40.67
2019-04-06T21:58:00.804Z,38.57
2019-04-06T22:00:33.311Z,38.37
2019-04-06T22:03:03.009Z,36.33
2019-04-06T22:05:32.996Z,38.07
2019-04-06T22:08:02.717Z,35.40
2019-04-06T22:10:32.341Z,35.30
2019-04-06T22:13:01.921Z,39.10
2019-04-06T22:15:31.538Z,36.97
2019-04-06T22:18:01.216Z,37.40
2019-04-06T22:20:30.891Z,37.97
2019-04-06T22:23:00.480Z,36.90
2019-04-06T22:25:30.048Z,33.90
2019-04-06T22:27:59.607Z,37.30
2019-04-06T22:30:29.262Z,36.20
2019-04-06T22:32:58.822Z,38.53
2019-04-06T22:35:29.483Z,37.30
2019-04-06T22:37:59.076Z,36.43
2019-04-06T22:40:29.071Z,35.20
2019-04-06T22:42:58.861Z,34.00
2019-04-06T22:45:30.115Z,36.37
2019-04-06T22:47:59.717Z,34.13
2019-04-06T22:50:29.377Z,35.33
2019-04-06T22:52:59.462Z,34.53
2019-04-06T22:55:29.780Z,36.37
2019-04-06T22:57:59.808Z,36.83
2019-04-06T23:00:31.444Z,33.63
2019-04-06T23:03:06.162Z,35.10
2019-04-06T23:05:35.763Z,33.87
2019-04-06T23:08:06.607Z,33.13
2019-04-06T23:10:36.183Z,36.57
2019-04-06T23:13:05.853Z,35.67
2019-04-06T23:15:35.475Z,37.20
2019-04-06T23:18:05.041Z,36.80
2019-04-06T23:20:35.166Z,34.20
2019-04-06T23:23:04.953Z,35.97
2019-04-06T23:25:36.013Z,36.87
2019-04-06T23:28:05.862Z,36.10
2019-04-06T23:30:35.515Z,35.47
2019-04-06T23:33:05.254Z,34.43
2019-04-06T23:35:34.917Z,32.97
2019-04-06T23:38:05.691Z,33.73
2019-04-06T23:40:35.307Z,35.40
2019-04-06T23:43:04.862Z,34.70
2019-04-06T23:45:34.431Z,33.80
2019-04-06T23:48:04.394Z,33.40
2019-04-06T23:50:34.599Z,31.13
2019-04-06T23:53:04.592Z,32.63
2019-04-06T23:55:34.326Z,30.00
2019-04-06T23:58:03.910Z,35.93
